Time;durP1;ratioP1;P1;durP2;ratioP2;P2;SDS_P1;SDS_P2;PMS_P1;PMS_P2;Temp;Humidity;BMP_temperature;BMP_pressure;BME280_temperature;BME280_humidity;BME280_pressure;Samples;Min_cycle;Max_cycle;Signal;HPM_P1;HPM_P2
2023/10/29 00:00:32;;;;;;;64.87;3.27;;;;;;;22.00;61.99;98217.63;7310975;19;128872;-37
2023/10/29 00:02:57;;;;;;;42.90;2.13;;;;;;;22.02;62.20;98230.53;7307153;19;129143;-35
2023/10/29 00:05:23;;;;;;;34.33;1.83;;;;;;;21.89;62.36;98211.03;7310498;19;130259;-32
2023/10/29 00:07:49;;;;;;;72.30;3.95;;;;;;;22.02;61.81;98214.84;7309323;19;131401;-34
2023/10/29 00:10:16;;;;;;;93.37;5.03;;;;;;;22.04;62.51;98220.72;7310725;19;130030;-33
2023/10/29 00:12:41;;;;;;;38.08;2.05;;;;;;;22.02;62.17;98214.84;7309462;19;129177;-36
2023/10/29 00:15:07;;;;;;;6.73;0.63;;;;;;;21.92;62.34;98204.59;7309727;19;129670;-33
2023/10/29 00:17:32;;;;;;;72.30;3.97;;;;;;;22.02;61.97;98220.06;7309565;19;129640;-38
2023/10/29 00:19:59;;;;;;;39.00;1.97;;;;;;;22.01;61.61;98214.03;7311218;19;128951;-37
2023/10/29 00:22:26;;;;;;;41.72;2.20;;;;;;;22.02;62.40;98212.22;7310369;19;131384;-32
2023/10/29 00:24:51;;;;;;;51.72;2.72;;;;;;;22.02;62.06;98214.84;7308564;19;129857;-36
2023/10/29 00:27:17;;;;;;;43.70;2.17;;;;;;;21.89;62.46;98190.09;7309907;19;128988;-37
2023/10/29 00:29:42;;;;;;;48.35;2.47;;;;;;;21.98;61.98;98197.88;7307762;19;129032;-31
2023/10/29 00:32:08;;;;;;;29.75;1.52;;;;;;;22.00;61.68;98198.53;7315203;19;130204;-31
2023/10/29 00:34:33;;;;;;;55.97;2.95;;;;;;;22.01;61.87;98202.75;7315466;19;131120;-36
2023/10/29 00:36:59;;;;;;;89.20;4.47;;;;;;;21.97;62.42;98191.81;7315318;19;129617;-37
2023/10/29 00:39:24;;;;;;;42.30;2.23;;;;;;;21.98;62.28;98194.25;7316053;19;132096;-43
2023/10/29 00:41:50;;;;;;;58.17;3.13;;;;;;;21.98;61.91;98191.63;7316301;19;130149;-38
2023/10/29 00:44:15;;;;;;;27.13;1.53;;;;;;;22.00;62.45;98190.66;7315604;19;129541;-37
2023/10/29 00:46:41;;;;;;;56.83;2.97;;;;;;;22.00;62.51;98190.66;7316558;19;129383;-32
2023/10/29 00:49:08;;;;;;;33.45;1.70;;;;;;;21.98;62.62;98183.78;7313484;19;129684;-39
2023/10/29 00:51:34;;;;;;;37.75;2.05;;;;;;;21.98;62.21;98179.56;7315660;19;129567;-32
2023/10/29 00:53:59;;;;;;;27.23;1.60;;;;;;;21.96;62.63;98169.25;7312340;19;129983;-34
2023/10/29 00:56:25;;;;;;;70.72;3.42;;;;;;;21.98;62.51;98181.16;7316465;19;129898;-38
2023/10/29 00:58:53;;;;;;;60.90;3.08;;;;;;;22.00;62.02;98180.19;7315480;19;131319;-37
2023/10/29 01:01:19;;;;;;;25.92;1.42;;;;;;;21.97;62.36;98176.13;7315239;19;129161;-35
2023/10/29 01:03:44;;;;;;;39.10;2.23;;;;;;;21.98;62.40;98177.75;7312547;19;129495;-34
2023/10/29 01:06:10;;;;;;;74.37;3.83;;;;;;;21.96;62.54;98172.69;7315516;19;129170;-34
2023/10/29 01:08:37;;;;;;;62.97;3.37;;;;;;;21.98;62.26;98176.94;7316002;19;128901;-35
2023/10/29 01:11:04;;;;;;;40.28;2.08;;;;;;;21.98;61.91;98171.72;7311680;19;131909;-35
2023/10/29 01:13:29;;;;;;;25.73;1.30;;;;;;;21.98;62.24;98177.75;7313795;19;129345;-40
2023/10/29 01:15:55;;;;;;;92.23;4.73;;;;;;;21.96;62.13;98179.72;7314136;19;129907;-40
2023/10/29 01:18:20;;;;;;;28.08;1.40;;;;;;;21.98;62.28;98181.16;7316931;19;128934;-35
2023/10/29 01:20:45;;;;;;;30.87;1.87;;;;;;;21.98;62.51;98183.78;7313136;19;129530;-33
2023/10/29 01:23:11;;;;;;;41.03;2.17;;;;;;;21.98;62.42;98179.56;7313528;19;129231;-36
2023/10/29 01:25:38;;;;;;;63.87;3.13;;;;;;;21.88;62.48;98159.66;7314749;19;130045;-38
2023/10/29 01:28:04;;;;;;;18.75;1.02;;;;;;;21.94;62.05;98172.06;7316272;19;129076;-30
2023/10/29 01:30:30;;;;;;;25.23;1.30;;;;;;;21.95;62.57;98178.91;7312032;19;130896;-32
2023/10/29 01:32:55;;;;;;;63.88;3.22;;;;;;;21.93;62.10;98165.19;7313678;19;130447;-36
2023/10/29 01:35:21;;;;;;;80.03;4.23;;;;;;;21.98;61.98;98179.56;7313900;19;129925;-40
2023/10/29 01:37:46;;;;;;;30.13;1.65;;;;;;;21.96;62.26;98174.50;7316537;19;129209;-35
2023/10/29 01:40:13;;;;;;;55.30;3.33;;;;;;;21.86;61.77;98155.59;7313865;19;129024;-33
2023/10/29 01:42:38;;;;;;;42.20;2.22;;;;;;;21.97;61.80;98176.13;7312452;19;130558;-33
2023/10/29 01:45:04;;;;;;;78.10;3.95;;;;;;;21.96;61.77;98169.25;7313463;19;129830;-36
2023/10/29 01:47:29;;;;;;;33.15;1.65;;;;;;;21.84;61.86;98150.56;7316527;19;129448;-30
2023/10/29 01:49:55;;;;;;;64.17;3.47;;;;;;;21.98;62.03;98169.91;7312364;19;129123;-38
2023/10/29 01:52:20;;;;;;;65.47;3.17;;;;;;;21.84;62.25;98153.19;7313954;19;130400;-36
2023/10/29 01:54:45;;;;;;;78.50;4.37;;;;;;;21.95;62.43;98171.06;7313725;19;129019;-42
2023/10/29 01:57:11;;;;;;;27.33;1.50;;;;;;;21.95;62.28;98173.69;7313909;19;129387;-31
2023/10/29 01:59:36;;;;;;;21.87;1.27;;;;;;;21.82;62.38;98155.16;7315372;19;130266;-39
2023/10/29 02:02:02;;;;;;;80.13;4.15;;;;;;;21.95;62.66;98176.28;7312517;19;130641;-40
2023/10/29 02:04:27;;;;;;;38.87;2.13;;;;;;;21.96;62.12;98179.72;7315214;19;129573;-39
2023/10/29 02:06:54;;;;;;;52.67;2.78;;;;;;;21.82;62.42;98160.38;7311499;19;130801;-36
2023/10/29 02:09:20;;;;;;;26.45;1.38;;;;;;;21.95;62.70;98172.84;7313434;19;130142;-39
2023/10/29 02:11:45;;;;;;;71.63;3.60;;;;;;;21.95;62.47;98167.63;7312078;19;131333;-40
2023/10/29 02:14:10;;;;;;;20.42;1.23;;;;;;;21.94;62.24;98164.22;7314868;19;130529;-30
2023/10/29 02:16:36;;;;;;;30.37;1.53;;;;;;;21.93;61.88;98159.94;7312338;19;129424;-36
2023/10/29 02:19:01;;;;;;;80.45;4.30;;;;;;;21.95;62.43;98163.22;7311640;19;129168;-36
2023/10/29 02:21:26;;;;;;;62.45;3.05;;;;;;;21.85;61.89;98149.56;7311470;19;130321;-33
2023/10/29 02:23:52;;;;;;;46.97;2.58;;;;;;;21.95;62.17;98167.63;7312679;19;128800;-37
2023/10/29 02:26:18;;;;;;;34.17;2.00;;;;;;;21.94;62.74;98166.00;7312214;19;129563;-38
2023/10/29 02:28:43;;;;;;;40.80;2.03;;;;;;;21.92;62.08;98158.34;7314587;19;129220;-31
2023/10/29 02:31:21;;;;;;;28.08;1.58;;;;;;;21.93;63.31;98164.38;7309213;19;129125;-39
2023/10/29 02:33:47;;;;;;;43.70;2.38;;;;;;;21.94;62.46;98166.00;7312904;19;129038;-37
2023/10/29 02:36:13;;;;;;;42.23;2.23;;;;;;;21.94;62.13;98166.84;7312678;19;129162;-36
2023/10/29 02:38:40;;;;;;;27.30;1.57;;;;;;;21.90;62.54;98160.31;7313968;19;129054;-36
2023/10/29 02:41:06;;;;;;;;;;;;;;;21.95;63.34;98168.44;7311237;19;129490;-37
2023/10/29 02:43:31;;;;;;;26.15;1.48;;;;;;;21.95;61.99;98165.81;7312919;19;129074;-34
2023/10/29 02:45:56;;;;;;;111.28;6.18;;;;;;;21.93;62.04;98165.19;7310844;19;129372;-36
2023/10/29 02:48:22;;;;;;;40.63;2.20;;;;;;;21.90;62.37;98157.69;7312726;19;129493;-37
2023/10/29 02:50:47;;;;;;;82.70;4.00;;;;;;;21.93;62.55;98165.19;7311072;19;129308;-39
2023/10/29 02:53:13;;;;;;;40.07;2.27;;;;;;;21.90;62.25;98155.06;7310454;19;129306;-35
2023/10/29 02:55:39;;;;;;;27.15;1.50;;;;;;;21.94;62.62;98161.59;7312668;19;129393;-35
2023/10/29 02:58:05;;;;;;;60.58;3.17;;;;;;;21.92;62.66;98157.50;7310777;19;130136;-38
2023/10/29 03:00:31;;;;;;;52.22;2.70;;;;;;;21.93;62.41;98152.09;7312613;19;129552;-38
2023/10/29 03:02:57;;;;;;;61.40;3.47;;;;;;;21.93;61.93;98159.94;7302639;19;131299;-35
2023/10/29 03:05:22;;;;;;;29.55;1.60;;;;;;;21.93;61.95;98154.72;7311579;19;129231;-35
2023/10/29 03:07:48;;;;;;;38.00;1.87;;;;;;;21.91;61.77;98148.84;7309993;19;129637;-37
2023/10/29 03:10:13;;;;;;;83.77;4.83;;;;;;;21.92;62.23;98147.88;7311412;19;131044;-36
2023/10/29 03:12:38;;;;;;;44.17;2.50;;;;;;;21.83;61.92;98127.19;7310502;19;130237;-35
2023/10/29 03:15:04;;;;;;;58.03;3.08;;;;;;;21.94;62.28;98151.13;7312467;19;129129;-37
2023/10/29 03:17:29;;;;;;;63.83;3.23;;;;;;;21.93;61.94;98144.25;7309502;19;130811;-38
2023/10/29 03:19:55;;;;;;;54.27;2.93;;;;;;;21.91;62.49;98142.81;7313804;19;132817;-34
2023/10/29 03:22:20;;;;;;;5.97;0.50;;;;;;;21.92;62.21;98149.66;7310055;19;131416;-35
2023/10/29 03:24:45;;;;;;;32.97;1.63;;;;;;;21.92;62.07;98147.88;7312878;19;129403;-35
2023/10/29 03:27:11;;;;;;;79.27;4.03;;;;;;;21.77;62.55;98118.22;7308684;19;129173;-34
2023/10/29 03:29:36;;;;;;;7.18;0.50;;;;;;;21.91;61.88;98135.75;7313559;19;129731;-30
2023/10/29 03:32:03;;;;;;;60.80;3.35;;;;;;;21.92;62.31;98145.25;7309219;19;129325;-35
2023/10/29 03:34:31;;;;;;;26.23;1.50;;;;;;;21.91;62.19;98140.19;7312501;19;129209;-29
2023/10/29 03:36:56;;;;;;;117.70;6.05;;;;;;;21.91;62.32;98146.22;7310504;19;130402;-36
2023/10/29 03:39:21;;;;;;;35.40;1.83;;;;;;;21.88;62.43;98128.28;7310416;19;129406;-37
2023/10/29 03:41:47;;;;;;;53.57;2.83;;;;;;;21.90;62.75;98139.38;7310442;19;129475;-31
2023/10/29 03:44:12;;;;;;;30.35;1.70;;;;;;;21.90;62.55;98136.75;7309644;19;129975;-34
2023/10/29 03:46:37;;;;;;;92.07;4.65;;;;;;;21.90;62.19;98128.91;7311673;19;129523;-34
2023/10/29 03:49:03;;;;;;;34.13;2.03;;;;;;;21.89;62.46;98122.06;7309410;19;130315;-34
2023/10/29 03:51:28;;;;;;;28.45;1.52;;;;;;;21.92;61.92;98126.94;7307905;19;128972;-36
2023/10/29 03:53:55;;;;;;;53.80;2.77;;;;;;;21.93;62.20;98119.91;7306569;19;129482;-37
2023/10/29 03:56:20;;;;;;;68.57;3.55;;;;;;;21.91;62.59;98127.91;7311241;19;131051;-39
2023/10/29 03:58:46;;;;;;;27.10;1.42;;;;;;;21.92;61.80;98126.94;7310806;19;129736;-33
2023/10/29 04:01:15;;;;;;;30.23;1.57;;;;;;;21.91;62.26;98124.50;7303682;19;129874;-38
2023/10/29 04:03:43;;;;;;;50.05;2.50;;;;;;;21.90;62.34;98123.69;7307353;19;129626;-32
2023/10/29 04:06:09;;;;;;;75.00;4.07;;;;;;;21.90;61.90;98128.91;7308975;19;129797;-35
2023/10/29 04:08:36;;;;;;;26.58;1.35;;;;;;;21.89;62.08;98122.06;7310426;19;129639;-36
2023/10/29 04:11:01;;;;;;;20.85;1.08;;;;;;;21.89;62.08;98122.06;7309051;19;128988;-35
2023/10/29 04:13:27;;;;;;;46.40;2.40;;;;;;;21.89;62.33;98122.06;7306180;19;129363;-33
2023/10/29 04:15:52;;;;;;;48.13;2.42;;;;;;;21.89;62.46;98111.59;7311905;19;130112;-35
2023/10/29 04:18:19;;;;;;;29.98;1.63;;;;;;;21.89;62.08;98111.59;7309419;19;129189;-36
2023/10/29 04:20:44;;;;;;;31.35;1.65;;;;;;;21.89;62.15;98106.38;7310526;19;129906;-37
2023/10/29 04:23:10;;;;;;;90.43;4.63;;;;;;;21.89;62.30;98116.00;7307079;19;130301;-38
2023/10/29 04:25:35;;;;;;;40.70;2.03;;;;;;;21.88;62.43;98115.19;7311234;19;129570;-37
2023/10/29 04:28:01;;;;;;;73.80;4.03;;;;;;;21.89;62.49;98116.00;7310049;19;130445;-34
2023/10/29 04:30:26;;;;;;;30.58;1.83;;;;;;;21.87;62.51;98118.81;7309202;19;129338;-36
2023/10/29 04:32:52;;;;;;;60.90;3.03;;;;;;;21.89;61.99;98116.00;7310101;19;129519;-29
2023/10/29 04:35:17;;;;;;;51.90;2.77;;;;;;;21.90;62.69;98122.84;7308574;19;130097;-36
2023/10/29 04:37:43;;;;;;;11.77;0.70;;;;;;;21.90;62.43;98117.63;7311228;19;129231;-36
2023/10/29 04:40:08;;;;;;;61.33;3.37;;;;;;;21.77;62.50;98094.69;7309050;19;129159;-36
2023/10/29 04:42:34;;;;;;;73.80;3.60;;;;;;;21.89;62.07;98111.59;7309654;19;129356;-36
2023/10/29 04:44:59;;;;;;;35.87;1.83;;;;;;;21.83;61.88;98099.19;7309990;19;130227;-38
2023/10/29 04:47:25;;;;;;;43.23;2.23;;;;;;;21.87;62.75;98104.91;7309273;19;129371;-35
2023/10/29 04:49:50;;;;;;;41.72;2.30;;;;;;;21.87;62.40;98097.06;7308762;19;131226;-31
2023/10/29 04:52:15;;;;;;;77.03;3.77;;;;;;;21.88;61.85;98089.03;7308143;19;129164;-34
2023/10/29 04:54:42;;;;;;;29.88;1.63;;;;;;;21.75;62.09;98059.22;7310511;19;129754;-34
2023/10/29 04:57:07;;;;;;;;;;;;;;;21.78;63.55;98070.16;7308831;19;130334;-34
2023/10/29 04:59:33;;;;;;;41.27;2.17;;;;;;;21.89;62.19;98082.81;7307207;19;129194;-37
2023/10/29 05:01:58;;;;;;;55.60;2.73;;;;;;;21.88;62.75;98083.78;7308303;19;129173;-34
2023/10/29 05:04:23;;;;;;;43.17;2.37;;;;;;;21.84;62.79;98072.06;7307679;19;129354;-33
2023/10/29 05:06:49;;;;;;;27.20;1.43;;;;;;;21.84;62.19;98072.06;7309967;19;129071;-35
2023/10/29 05:09:14;;;;;;;49.08;2.42;;;;;;;21.87;62.40;98076.94;7306967;19;129527;-38
2023/10/29 05:11:39;;;;;;;49.30;2.50;;;;;;;21.88;62.61;98078.56;7306257;19;129074;-37
2023/10/29 05:14:05;;;;;;;79.47;4.32;;;;;;;21.72;62.09;98047.28;7304898;19;129396;-35
2023/10/29 05:16:31;;;;;;;28.87;1.50;;;;;;;21.82;62.77;98068.81;7309478;19;129141;-34
2023/10/29 05:18:56;;;;;;;67.37;3.60;;;;;;;21.86;62.13;98071.88;7315252;19;130342;-37
2023/10/29 05:21:21;;;;;;;37.42;1.83;;;;;;;21.86;62.46;98067.47;7313740;19;130532;-37
2023/10/29 05:23:47;;;;;;;24.10;1.20;;;;;;;21.87;62.09;98074.31;7314934;19;130224;-34
2023/10/29 05:26:12;;;;;;;58.78;3.13;;;;;;;21.77;62.16;98052.84;7313316;19;129203;-37
2023/10/29 05:28:37;;;;;;;60.23;3.07;;;;;;;21.86;61.98;98064.88;7315920;19;129819;-30
2023/10/29 05:31:03;;;;;;;56.22;2.92;;;;;;;21.73;62.43;98035.81;7311821;19;129326;-36
2023/10/29 05:33:28;;;;;;;40.00;2.13;;;;;;;21.86;62.70;98057.00;7311898;19;129380;-41
2023/10/29 05:35:55;;;;;;;27.43;1.33;;;;;;;21.87;62.81;98060.41;7313427;19;129161;-32
2023/10/29 05:38:20;;;;;;;69.07;3.40;;;;;;;21.85;62.88;98057.97;7315121;19;128871;-40
2023/10/29 05:40:45;;;;;;;30.27;1.67;;;;;;;21.84;62.12;98048.53;7313755;19;129462;-36
2023/10/29 05:43:11;;;;;;;72.82;3.80;;;;;;;21.84;62.22;98043.28;7312013;19;130457;-33
2023/10/29 05:45:36;;;;;;;40.83;2.03;;;;;;;21.86;62.53;98048.34;7313135;19;129230;-40
2023/10/29 05:48:02;;;;;;;66.40;3.43;;;;;;;21.72;61.96;98023.75;7314394;19;128799;-31
2023/10/29 05:50:27;;;;;;;31.57;1.70;;;;;;;21.84;62.25;98047.69;7312752;19;129436;-31
2023/10/29 05:52:52;;;;;;;27.77;1.37;;;;;;;21.87;62.38;98044.72;7313196;19;130891;-38
2023/10/29 05:55:19;;;;;;;51.03;2.57;;;;;;;21.83;61.93;98043.47;7311286;19;130373;-37
2023/10/29 05:57:45;;;;;;;46.97;2.28;;;;;;;21.81;62.24;98046.28;7315339;19;129081;-34
2023/10/29 06:00:11;;;;;;;62.43;3.47;;;;;;;21.86;62.44;98051.78;7312765;19;128964;-35
2023/10/29 06:02:38;;;;;;;43.20;2.37;;;;;;;21.84;62.33;98056.38;7311282;19;130517;-39
2023/10/29 06:05:05;;;;;;;90.80;4.63;;;;;;;21.82;62.01;98053.13;7312630;19;131091;-35
2023/10/29 06:07:30;;;;;;;51.50;2.55;;;;;;;21.85;62.75;98051.94;7313985;19;129504;-36
2023/10/29 06:09:56;;;;;;;28.00;1.43;;;;;;;21.86;62.66;98048.34;7315294;19;129496;-38
2023/10/29 06:12:22;;;;;;;31.80;1.65;;;;;;;21.86;62.56;98046.53;7307507;19;131197;-37
2023/10/29 06:14:47;;;;;;;65.40;3.13;;;;;;;21.85;62.54;98038.84;7314750;19;130931;-38
2023/10/29 06:17:13;;;;;;;59.87;3.13;;;;;;;21.84;62.72;98039.84;7312203;19;129741;-39
2023/10/29 06:19:38;;;;;;;29.23;1.55;;;;;;;21.84;62.15;98040.69;7314721;19;129017;-35
2023/10/29 06:22:06;;;;;;;42.13;2.30;;;;;;;21.83;62.42;98041.66;7312081;19;130473;-34
2023/10/29 06:24:31;;;;;;;69.82;3.38;;;;;;;21.84;62.32;98042.47;7313886;19;129194;-37
2023/10/29 06:26:57;;;;;;;34.87;1.73;;;;;;;21.85;62.43;98036.22;7314041;19;129348;-39
2023/10/29 06:29:22;;;;;;;34.13;1.95;;;;;;;21.83;62.52;98033.81;7310658;19;128958;-32
2023/10/29 06:31:48;;;;;;;75.27;4.20;;;;;;;21.82;62.11;98032.19;7309322;19;129542;-33
2023/10/29 06:34:13;;;;;;;90.78;4.32;;;;;;;21.81;62.78;98033.19;7313716;19;129752;-40
2023/10/29 06:36:39;;;;;;;22.50;1.20;;;;;;;21.82;62.60;98024.34;7315062;19;129392;-33
2023/10/29 06:39:04;;;;;;;49.90;2.63;;;;;;;21.81;62.20;98025.34;7311931;19;129327;-37
2023/10/29 06:41:30;;;;;;;28.53;1.40;;;;;;;21.79;62.84;98027.31;7312120;19;129599;-37
2023/10/29 06:43:55;;;;;;;70.20;3.43;;;;;;;21.80;62.52;98023.69;7310029;19;129624;-37
2023/10/29 06:46:20;;;;;;;33.85;1.88;;;;;;;21.82;62.44;98026.94;7314205;19;129504;-38
2023/10/29 06:48:46;;;;;;;29.20;1.48;;;;;;;21.81;62.14;98035.81;7310554;19;129221;-40
2023/10/29 06:51:11;;;;;;;73.57;3.67;;;;;;;21.83;62.24;98041.66;7309437;19;129178;-37
2023/10/29 06:53:37;;;;;;;46.00;2.23;;;;;;;21.82;62.84;98042.66;7310459;19;129843;-39
2023/10/29 06:56:04;;;;;;;28.70;1.40;;;;;;;21.81;62.17;98048.06;7314476;19;129055;-44
2023/10/29 06:58:29;;;;;;;15.43;0.80;;;;;;;21.81;62.89;98042.84;7311980;19;130785;-33
2023/10/29 07:01:11;;;;;;;60.85;3.20;;;;;;;21.78;63.68;98030.91;7310607;19;130234;-36
2023/10/29 07:03:37;;;;;;;63.28;3.05;;;;;;;21.81;62.83;98050.69;7307583;19;129279;-37
2023/10/29 07:06:11;;;;;;;28.45;1.48;;;;;;;21.81;63.47;98050.69;7315021;19;129615;-32
2023/10/29 07:08:37;;;;;;;28.52;1.45;;;;;;;21.78;62.44;98030.91;7312071;19;130121;-41
2023/10/29 07:11:03;;;;;;;28.57;1.47;;;;;;;21.81;62.67;98041.03;7310690;19;130189;-33
2023/10/29 07:13:29;;;;;;;83.50;4.30;;;;;;;21.82;62.32;98041.84;7307648;19;133152;-40
2023/10/29 07:15:55;;;;;;;25.47;1.37;;;;;;;21.82;62.11;98032.19;7313404;19;129390;-31
2023/10/29 07:18:21;;;;;;;46.63;2.53;;;;;;;21.80;62.61;98039.41;7311625;19;130472;-39
2023/10/29 07:20:46;;;;;;;26.37;1.37;;;;;;;21.82;62.70;98032.19;7312275;19;129583;-33
2023/10/29 07:23:12;;;;;;;79.25;4.13;;;;;;;21.82;62.46;98037.41;7309336;19;130736;-37
2023/10/29 07:25:38;;;;;;;21.08;1.17;;;;;;;21.82;62.77;98036.59;7312307;19;129475;-42
2023/10/29 07:28:03;;;;;;;64.90;3.60;;;;;;;21.80;62.64;98034.16;7311414;19;131921;-36
2023/10/29 07:30:30;;;;;;;37.33;1.92;;;;;;;21.81;63.00;98035.81;7310645;19;129617;-35
2023/10/29 07:32:56;;;;;;;85.03;4.13;;;;;;;21.68;62.77;98014.63;7309593;19;130503;-35
2023/10/29 07:35:21;;;;;;;48.53;2.47;;;;;;;21.81;62.38;98034.97;7311464;19;129926;-38
2023/10/29 07:37:46;;;;;;;32.85;1.73;;;;;;;21.82;62.14;98036.59;7310705;19;129211;-33
2023/10/29 07:40:12;;;;;;;83.40;4.87;;;;;;;21.81;62.11;98051.50;7306904;19;129344;-36
2023/10/29 07:42:37;;;;;;;69.18;3.47;;;;;;;21.69;62.47;98021.50;7310011;19;130295;-41
2023/10/29 07:45:03;;;;;;;28.80;1.43;;;;;;;21.81;62.57;98041.03;7311000;19;129980;-37
2023/10/29 07:47:28;;;;;;;47.38;2.42;;;;;;;21.80;62.56;98042.00;7309331;19;129101;-37
2023/10/29 07:49:53;;;;;;;32.17;1.47;;;;;;;21.78;62.49;98036.13;7309031;19;129027;-35
2023/10/29 07:52:20;;;;;;;82.90;4.28;;;;;;;21.79;62.82;98037.78;7309018;19;130431;-31
2023/10/29 07:54:45;;;;;;;45.80;2.37;;;;;;;21.80;62.73;98035.97;7310780;19;129488;-35
2023/10/29 07:57:10;;;;;;;49.43;2.70;;;;;;;21.79;62.36;98045.63;7310920;19;129439;-32
2023/10/29 07:59:36;;;;;;;58.33;2.97;;;;;;;21.79;62.80;98052.66;7307912;19;130278;-36
2023/10/29 08:02:01;;;;;;;53.03;2.58;;;;;;;21.79;62.51;98045.63;7311436;19;130283;-30
2023/10/29 08:04:28;;;;;;;25.40;1.33;;;;;;;21.78;62.30;98041.38;7309322;19;131159;-32
2023/10/29 08:06:54;;;;;;;27.90;1.48;;;;;;;21.77;62.51;98045.00;7310444;19;129229;-34
2023/10/29 08:09:19;;;;;;;71.43;3.63;;;;;;;21.77;62.85;98045.00;7308541;19;130093;-32
2023/10/29 08:11:44;;;;;;;61.37;3.07;;;;;;;21.66;62.65;98024.47;7307366;19;131095;-36
2023/10/29 08:14:10;;;;;;;21.70;1.23;;;;;;;21.77;62.58;98042.38;7308077;19;129394;-39
2023/10/29 08:16:35;;;;;;;28.05;1.35;;;;;;;21.79;62.45;98048.25;7310348;19;129448;-32
2023/10/29 08:19:00;;;;;;;178.27;9.30;;;;;;;21.80;62.05;98056.88;7307778;19;129767;-32
2023/10/29 08:21:26;;;;;;;43.28;2.13;;;;;;;21.80;62.48;98049.03;7309150;19;129867;-42
2023/10/29 08:23:51;;;;;;;41.67;2.17;;;;;;;21.78;62.41;98049.22;7308332;19;130262;-32
2023/10/29 08:26:17;;;;;;;36.03;1.92;;;;;;;21.76;62.40;98056.44;7307448;19;129623;-37
2023/10/29 08:28:42;;;;;;;71.47;3.57;;;;;;;21.78;62.75;98057.06;7309468;19;129439;-42
2023/10/29 08:31:08;;;;;;;27.90;1.43;;;;;;;21.79;62.43;98063.94;7306904;19;129602;-34
2023/10/29 08:33:34;;;;;;;26.23;1.38;;;;;;;21.76;62.42;98064.31;7306999;19;130359;-32
2023/10/29 08:35:59;;;;;;;26.73;1.33;;;;;;;21.77;62.81;98071.16;7308626;19;129894;-32
2023/10/29 08:38:24;;;;;;;54.93;2.97;;;;;;;21.75;62.56;98067.84;7310055;19;130047;-41
2023/10/29 08:40:50;;;;;;;44.63;2.47;;;;;;;21.76;62.43;98059.06;7307151;19;130073;-38
2023/10/29 08:43:16;;;;;;;59.03;3.25;;;;;;;21.80;61.69;98067.34;7308095;19;129357;-38
2023/10/29 08:45:41;;;;;;;32.27;1.70;;;;;;;21.78;62.50;98066.75;7306629;19;129428;-40
2023/10/29 08:48:07;;;;;;;48.50;2.30;;;;;;;21.76;62.56;98069.53;7309950;19;131754;-38
2023/10/29 08:50:32;;;;;;;42.73;2.27;;;;;;;21.77;62.62;98068.53;7307949;19;129652;-37
2023/10/29 08:52:58;;;;;;;11.40;0.80;;;;;;;21.78;62.47;98071.97;7313589;19;132254;-35
2023/10/29 08:55:23;;;;;;;76.83;4.07;;;;;;;21.68;62.98;98061.69;7314269;19;129018;-33
2023/10/29 08:57:49;;;;;;;57.72;3.03;;;;;;;21.76;62.57;98073.91;7316509;19;129558;-39
2023/10/29 09:00:15;;;;;;;102.50;5.97;;;;;;;21.76;62.41;98063.44;7315202;19;130768;-40
2023/10/29 09:02:40;;;;;;;27.85;1.55;;;;;;;21.72;62.81;98065.59;7314923;19;128899;-36
2023/10/29 09:05:07;;;;;;;66.67;3.17;;;;;;;21.75;62.33;98057.41;7316861;19;129241;-37
2023/10/29 09:07:33;;;;;;;41.00;2.13;;;;;;;21.75;62.32;98062.63;7312314;19;130914;-36
2023/10/29 09:09:58;;;;;;;39.70;2.23;;;;;;;21.77;62.07;98065.91;7317041;19;131440;-29
2023/10/29 09:12:25;;;;;;;56.10;3.03;;;;;;;21.76;62.71;98053.84;7313151;19;130799;-35
2023/10/29 09:14:50;;;;;;;65.18;3.17;;;;;;;21.76;62.56;98053.84;7316015;19;129515;-35
2023/10/29 09:17:16;;;;;;;41.20;2.07;;;;;;;21.74;62.88;98058.41;7314597;19;130219;-39
2023/10/29 09:19:41;;;;;;;26.13;1.35;;;;;;;21.74;62.21;98055.78;7315184;19;130470;-38
2023/10/29 09:22:06;;;;;;;30.88;1.63;;;;;;;21.74;62.43;98050.56;7313237;19;129147;-33
2023/10/29 09:24:32;;;;;;;73.27;3.60;;;;;;;21.75;62.46;98046.94;7316004;19;129571;-32
2023/10/29 09:26:57;;;;;;;55.33;3.15;;;;;;;21.62;62.29;98020.56;7314325;19;129474;-39
2023/10/29 09:29:23;;;;;;;49.77;2.70;;;;;;;21.75;62.90;98035.69;7314720;19;130072;-34
2023/10/29 09:31:50;;;;;;;27.73;1.40;;;;;;;21.61;62.67;98013.72;7311510;19;129539;-33
2023/10/29 09:34:16;;;;;;;59.22;2.83;;;;;;;21.76;62.28;98035.53;7316147;19;130005;-36
2023/10/29 09:36:43;;;;;;;28.67;1.50;;;;;;;21.77;62.76;98045.00;7314223;19;130788;-34
2023/10/29 09:39:09;;;;;;;34.28;1.77;;;;;;;21.75;61.92;98040.91;7315373;19;129902;-30
2023/10/29 09:41:37;;;;;;;25.17;1.50;;;;;;;21.77;62.36;98045.00;7311014;19;130929;-34
2023/10/29 09:44:05;;;;;;;65.43;3.28;;;;;;;21.75;62.43;98052.16;7312448;19;129099;-42
2023/10/29 09:46:35;;;;;;;88.78;4.75;;;;;;;21.74;62.61;98058.41;7312654;19;130649;-32
2023/10/29 09:49:01;;;;;;;31.33;1.63;;;;;;;21.75;62.56;98056.59;7315177;19;130036;-36
2023/10/29 09:51:28;;;;;;;70.40;3.77;;;;;;;21.75;62.69;98060.00;7312485;19;129210;-39
2023/10/29 09:53:57;;;;;;;71.63;3.50;;;;;;;21.74;62.86;98061.00;7310916;19;130619;-34
2023/10/29 09:56:24;;;;;;;65.22;3.63;;;;;;;21.74;62.48;98054.97;7315317;19;130255;-31
2023/10/29 09:58:49;;;;;;;28.45;1.50;;;;;;;21.70;62.74;98048.47;7313773;19;130419;-37
2023/10/29 10:01:15;;;;;;;54.97;2.90;;;;;;;21.72;62.61;98057.75;7313701;19;129213;-37
2023/10/29 10:03:40;;;;;;;83.23;4.03;;;;;;;21.75;62.18;98064.44;7307607;19;129446;-34
2023/10/29 10:06:06;;;;;;;11.10;0.77;;;;;;;21.75;62.27;98067.84;7314958;19;128894;-37
2023/10/29 10:08:33;;;;;;;42.17;2.30;;;;;;;21.74;62.97;98063.63;7311152;19;130661;-37
2023/10/29 10:10:59;;;;;;;;;;;;;;;21.76;64.26;98059.06;7314072;19;128957;-36
2023/10/29 10:13:38;;;;;;;60.17;3.10;;;;;;;21.74;63.61;98063.63;7310212;19;129638;-38
2023/10/29 10:16:06;;;;;;;51.67;2.58;;;;;;;21.74;62.71;98079.31;7313701;19;130014;-41
2023/10/29 10:18:53;;;;;;;40.80;2.20;;;;;;;21.72;63.63;98073.44;7312053;19;131936;-33
2023/10/29 10:21:43;;;;;;;42.40;2.25;;;;;;;21.75;63.32;98083.56;7313560;19;128749;-35
2023/10/29 10:24:09;;;;;;;26.88;1.33;;;;;;;21.73;62.22;98082.13;7309248;19;129618;-38
2023/10/29 10:26:36;;;;;;;39.15;2.00;;;;;;;21.69;62.38;98073.81;7312517;19;129466;-38
2023/10/29 10:29:03;;;;;;;;;;;;;;;21.74;64.12;98081.94;7312736;19;129173;-35
2023/10/29 10:31:31;;;;;;;92.95;4.70;;;;;;;21.75;62.40;98088.00;7311911;19;129335;-31
2023/10/29 10:34:13;;;;;;;24.15;1.30;;;;;;;21.58;63.88;98060.34;7310918;19;129539;-35
2023/10/29 10:36:41;;;;;;;29.50;1.42;;;;;;;21.57;62.85;98059.53;7314992;19;130309;-34
2023/10/29 10:39:07;;;;;;;27.15;1.48;;;;;;;21.72;62.36;98078.69;7310936;19;130034;-35
2023/10/29 10:41:45;;;;;;;38.20;1.90;;;;;;;21.69;63.23;98083.44;7312419;19;128993;-38
2023/10/29 10:44:13;;;;;;;57.55;2.72;;;;;;;21.72;62.35;98072.63;7311809;19;129194;-32
2023/10/29 10:46:42;;;;;;;26.60;1.38;;;;;;;21.65;63.08;98064.69;7313822;19;129342;-34
2023/10/29 10:49:07;;;;;;;37.60;1.85;;;;;;;21.71;62.98;98079.69;7310024;19;130419;-40
2023/10/29 10:51:37;;;;;;;42.70;2.47;;;;;;;21.70;63.04;98075.41;7310825;19;129203;-30
2023/10/29 10:54:04;;;;;;;56.10;2.65;;;;;;;21.70;62.78;98085.88;7308669;19;129518;-35
2023/10/29 10:56:35;;;;;;;83.88;4.22;;;;;;;21.70;62.38;98075.41;7312656;19;131186;-36
2023/10/29 10:59:03;;;;;;;28.65;1.48;;;;;;;21.71;62.85;98077.06;7311728;19;129794;-37
2023/10/29 11:01:30;;;;;;;54.22;3.03;;;;;;;21.71;62.47;98074.44;7308862;19;130540;-37
2023/10/29 11:03:56;;;;;;;34.38;1.65;;;;;;;21.69;62.99;98073.81;7310942;19;129427;-37
2023/10/29 11:06:22;;;;;;;;;;;;;;;21.71;63.46;98069.22;7313056;19;130266;-41
2023/10/29 11:08:48;;;;;;;28.27;1.42;;;;;;;21.73;62.32;98072.44;7313469;19;129416;-37
2023/10/29 11:11:14;;;;;;;42.33;2.13;;;;;;;21.72;62.53;98072.63;7311635;19;128996;-33
2023/10/29 11:13:40;;;;;;;49.50;2.58;;;;;;;21.71;62.31;98063.16;7310537;19;129576;-36